sensor_id;sensor_type;location;lat;lon;timestamp;P1;durP1;ratioP1;P2;durP2;ratioP2
44893;SDS011;30625;52.206;21.030;2023-05-07T00:00:22;10.15;;;5.28;;
44893;SDS011;30625;52.206;21.030;2023-05-07T00:02:48;14.27;;;5.55;;
44893;SDS011;30625;52.206;21.030;2023-05-07T00:05:13;15.05;;;6.32;;
44893;SDS011;30625;52.206;21.030;2023-05-07T00:07:39;11.73;;;5.25;;
44893;SDS011;30625;52.206;21.030;2023-05-07T00:10:05;9.35;;;4.47;;
44893;SDS011;30625;52.206;21.030;2023-05-07T00:12:32;11.68;;;5.43;;
44893;SDS011;30625;52.206;21.030;2023-05-07T00:15:01;10.70;;;4.97;;
44893;SDS011;30625;52.206;21.030;2023-05-07T00:17:28;11.52;;;6.50;;
44893;SDS011;30625;52.206;21.030;2023-05-07T00:19:54;16.95;;;5.68;;
44893;SDS011;30625;52.206;21.030;2023-05-07T00:22:20;8.57;;;4.60;;
44893;SDS011;30625;52.206;21.030;2023-05-07T00:24:46;12.65;;;5.57;;
44893;SDS011;30625;52.206;21.030;2023-05-07T00:27:15;12.95;;;5.20;;
44893;SDS011;30625;52.206;21.030;2023-05-07T00:29:41;12.27;;;5.22;;
44893;SDS011;30625;52.206;21.030;2023-05-07T00:32:06;14.40;;;5.80;;
44893;SDS011;30625;52.206;21.030;2023-05-07T00:34:33;18.05;;;5.72;;
44893;SDS011;30625;52.206;21.030;2023-05-07T00:36:59;11.93;;;5.90;;
44893;SDS011;30625;52.206;21.030;2023-05-07T00:39:26;12.52;;;5.20;;
44893;SDS011;30625;52.206;21.030;2023-05-07T00:41:52;9.90;;;4.97;;
44893;SDS011;30625;52.206;21.030;2023-05-07T00:44:17;12.10;;;5.53;;
44893;SDS011;30625;52.206;21.030;2023-05-07T00:46:43;10.68;;;5.10;;
44893;SDS011;30625;52.206;21.030;2023-05-07T00:49:15;12.43;;;5.35;;
44893;SDS011;30625;52.206;21.030;2023-05-07T00:51:41;10.23;;;5.20;;
44893;SDS011;30625;52.206;21.030;2023-05-07T00:54:08;13.82;;;5.95;;
44893;SDS011;30625;52.206;21.030;2023-05-07T00:56:34;12.57;;;6.13;;
44893;SDS011;30625;52.206;21.030;2023-05-07T00:59:01;10.10;;;5.63;;
44893;SDS011;30625;52.206;21.030;2023-05-07T01:01:28;16.95;;;6.03;;
44893;SDS011;30625;52.206;21.030;2023-05-07T01:03:54;10.63;;;5.53;;
44893;SDS011;30625;52.206;21.030;2023-05-07T01:06:21;11.00;;;5.95;;
44893;SDS011;30625;52.206;21.030;2023-05-07T01:08:48;12.45;;;5.93;;
44893;SDS011;30625;52.206;21.030;2023-05-07T01:11:15;11.30;;;5.45;;
44893;SDS011;30625;52.206;21.030;2023-05-07T01:13:44;11.38;;;5.53;;
44893;SDS011;30625;52.206;21.030;2023-05-07T01:18:36;12.05;;;5.22;;
44893;SDS011;30625;52.206;21.030;2023-05-07T01:21:03;12.40;;;5.47;;
44893;SDS011;30625;52.206;21.030;2023-05-07T01:23:30;12.60;;;5.25;;
44893;SDS011;30625;52.206;21.030;2023-05-07T01:25:56;10.90;;;5.50;;
44893;SDS011;30625;52.206;21.030;2023-05-07T01:28:22;12.00;;;5.80;;
44893;SDS011;30625;52.206;21.030;2023-05-07T01:30:53;12.23;;;7.13;;
44893;SDS011;30625;52.206;21.030;2023-05-07T01:33:23;15.93;;;6.18;;
44893;SDS011;30625;52.206;21.030;2023-05-07T01:35:51;11.32;;;5.65;;
44893;SDS011;30625;52.206;21.030;2023-05-07T01:38:18;12.23;;;5.13;;
44893;SDS011;30625;52.206;21.030;2023-05-07T01:40:46;13.07;;;5.57;;
44893;SDS011;30625;52.206;21.030;2023-05-07T01:43:12;11.30;;;5.85;;
44893;SDS011;30625;52.206;21.030;2023-05-07T01:45:38;12.27;;;5.38;;
44893;SDS011;30625;52.206;21.030;2023-05-07T01:48:05;11.60;;;5.38;;
44893;SDS011;30625;52.206;21.030;2023-05-07T01:50:33;9.23;;;5.20;;
44893;SDS011;30625;52.206;21.030;2023-05-07T01:53:00;20.45;;;6.15;;
44893;SDS011;30625;52.206;21.030;2023-05-07T01:55:26;12.80;;;6.38;;
44893;SDS011;30625;52.206;21.030;2023-05-07T01:57:52;12.50;;;5.32;;
44893;SDS011;30625;52.206;21.030;2023-05-07T02:00:18;11.00;;;5.35;;
44893;SDS011;30625;52.206;21.030;2023-05-07T02:02:44;11.60;;;6.15;;
44893;SDS011;30625;52.206;21.030;2023-05-07T02:05:10;9.63;;;5.50;;
44893;SDS011;30625;52.206;21.030;2023-05-07T02:07:36;13.40;;;5.80;;
44893;SDS011;30625;52.206;21.030;2023-05-07T02:10:03;10.23;;;4.88;;
44893;SDS011;30625;52.206;21.030;2023-05-07T02:12:29;9.93;;;4.75;;
44893;SDS011;30625;52.206;21.030;2023-05-07T02:14:54;9.13;;;4.40;;
44893;SDS011;30625;52.206;21.030;2023-05-07T02:17:20;10.80;;;5.13;;
44893;SDS011;30625;52.206;21.030;2023-05-07T02:19:46;12.90;;;5.22;;
44893;SDS011;30625;52.206;21.030;2023-05-07T02:22:11;11.23;;;5.32;;
44893;SDS011;30625;52.206;21.030;2023-05-07T02:24:37;11.23;;;5.05;;
44893;SDS011;30625;52.206;21.030;2023-05-07T02:27:02;11.88;;;5.10;;
44893;SDS011;30625;52.206;21.030;2023-05-07T02:29:29;11.20;;;4.80;;
44893;SDS011;30625;52.206;21.030;2023-05-07T02:31:54;10.70;;;5.13;;
44893;SDS011;30625;52.206;21.030;2023-05-07T02:34:20;9.23;;;4.40;;
44893;SDS011;30625;52.206;21.030;2023-05-07T02:36:46;12.32;;;5.22;;
44893;SDS011;30625;52.206;21.030;2023-05-07T02:39:12;11.85;;;5.45;;
44893;SDS011;30625;52.206;21.030;2023-05-07T02:41:38;10.20;;;5.25;;
44893;SDS011;30625;52.206;21.030;2023-05-07T02:44:04;10.98;;;5.43;;
44893;SDS011;30625;52.206;21.030;2023-05-07T02:46:30;10.05;;;4.88;;
44893;SDS011;30625;52.206;21.030;2023-05-07T02:48:55;13.63;;;5.05;;
44893;SDS011;30625;52.206;21.030;2023-05-07T02:51:22;8.48;;;4.68;;
44893;SDS011;30625;52.206;21.030;2023-05-07T02:53:48;10.57;;;5.07;;
44893;SDS011;30625;52.206;21.030;2023-05-07T02:56:14;10.48;;;4.28;;
44893;SDS011;30625;52.206;21.030;2023-05-07T02:58:40;11.65;;;4.40;;
44893;SDS011;30625;52.206;21.030;2023-05-07T03:01:07;10.52;;;4.60;;
44893;SDS011;30625;52.206;21.030;2023-05-07T03:03:33;10.45;;;4.57;;
44893;SDS011;30625;52.206;21.030;2023-05-07T03:08:25;7.90;;;3.78;;
44893;SDS011;30625;52.206;21.030;2023-05-07T03:10:51;7.88;;;3.75;;
44893;SDS011;30625;52.206;21.030;2023-05-07T03:13:17;12.50;;;4.55;;
44893;SDS011;30625;52.206;21.030;2023-05-07T03:18:08;9.13;;;4.07;;
44893;SDS011;30625;52.206;21.030;2023-05-07T03:20:34;8.07;;;3.78;;
44893;SDS011;30625;52.206;21.030;2023-05-07T03:23:01;9.50;;;3.97;;
44893;SDS011;30625;52.206;21.030;2023-05-07T03:25:27;8.80;;;4.15;;
44893;SDS011;30625;52.206;21.030;2023-05-07T03:27:55;6.88;;;3.88;;
44893;SDS011;30625;52.206;21.030;2023-05-07T03:32:46;7.15;;;3.60;;
44893;SDS011;30625;52.206;21.030;2023-05-07T03:35:13;9.27;;;4.60;;
44893;SDS011;30625;52.206;21.030;2023-05-07T03:37:39;9.15;;;4.18;;
44893;SDS011;30625;52.206;21.030;2023-05-07T03:40:05;10.32;;;4.80;;
44893;SDS011;30625;52.206;21.030;2023-05-07T03:45:08;7.97;;;3.90;;
44893;SDS011;30625;52.206;21.030;2023-05-07T03:47:34;6.97;;;3.40;;
44893;SDS011;30625;52.206;21.030;2023-05-07T03:49:59;7.97;;;3.83;;
44893;SDS011;30625;52.206;21.030;2023-05-07T03:52:28;6.45;;;3.33;;
44893;SDS011;30625;52.206;21.030;2023-05-07T03:54:54;11.60;;;4.10;;
44893;SDS011;30625;52.206;21.030;2023-05-07T03:57:20;7.68;;;3.45;;
44893;SDS011;30625;52.206;21.030;2023-05-07T03:59:45;10.68;;;3.95;;
44893;SDS011;30625;52.206;21.030;2023-05-07T04:02:11;12.52;;;5.00;;
44893;SDS011;30625;52.206;21.030;2023-05-07T04:04:37;9.65;;;3.40;;
44893;SDS011;30625;52.206;21.030;2023-05-07T04:07:03;8.23;;;3.45;;
44893;SDS011;30625;52.206;21.030;2023-05-07T04:09:29;7.40;;;3.33;;
44893;SDS011;30625;52.206;21.030;2023-05-07T04:11:56;8.93;;;3.28;;
44893;SDS011;30625;52.206;21.030;2023-05-07T04:14:22;9.25;;;3.70;;
44893;SDS011;30625;52.206;21.030;2023-05-07T04:16:47;74.45;;;28.42;;
44893;SDS011;30625;52.206;21.030;2023-05-07T04:19:13;10.63;;;4.60;;
44893;SDS011;30625;52.206;21.030;2023-05-07T04:21:39;8.60;;;3.40;;
44893;SDS011;30625;52.206;21.030;2023-05-07T04:24:05;10.70;;;3.85;;
44893;SDS011;30625;52.206;21.030;2023-05-07T04:26:31;9.07;;;3.45;;
44893;SDS011;30625;52.206;21.030;2023-05-07T04:28:57;8.18;;;3.88;;
44893;SDS011;30625;52.206;21.030;2023-05-07T04:31:24;11.30;;;3.53;;
44893;SDS011;30625;52.206;21.030;2023-05-07T04:33:52;11.65;;;3.38;;
44893;SDS011;30625;52.206;21.030;2023-05-07T04:36:18;7.85;;;3.95;;
44893;SDS011;30625;52.206;21.030;2023-05-07T04:39:09;12.35;;;3.58;;
44893;SDS011;30625;52.206;21.030;2023-05-07T04:41:36;8.30;;;3.33;;
44893;SDS011;30625;52.206;21.030;2023-05-07T04:44:01;12.25;;;4.60;;
44893;SDS011;30625;52.206;21.030;2023-05-07T04:46:28;12.00;;;3.55;;
44893;SDS011;30625;52.206;21.030;2023-05-07T04:51:20;5.82;;;2.58;;
44893;SDS011;30625;52.206;21.030;2023-05-07T04:53:46;7.57;;;3.53;;
44893;SDS011;30625;52.206;21.030;2023-05-07T04:56:12;6.15;;;2.95;;
44893;SDS011;30625;52.206;21.030;2023-05-07T04:58:38;6.57;;;2.80;;
44893;SDS011;30625;52.206;21.030;2023-05-07T05:01:04;8.60;;;3.28;;
44893;SDS011;30625;52.206;21.030;2023-05-07T05:03:30;6.15;;;2.70;;
44893;SDS011;30625;52.206;21.030;2023-05-07T05:05:56;7.75;;;3.20;;
44893;SDS011;30625;52.206;21.030;2023-05-07T05:08:24;8.35;;;2.55;;
44893;SDS011;30625;52.206;21.030;2023-05-07T05:10:50;5.90;;;2.33;;
44893;SDS011;30625;52.206;21.030;2023-05-07T05:13:15;6.38;;;2.53;;
44893;SDS011;30625;52.206;21.030;2023-05-07T05:15:41;5.15;;;2.20;;
44893;SDS011;30625;52.206;21.030;2023-05-07T05:18:07;0.55;;;0.20;;
44893;SDS011;30625;52.206;21.030;2023-05-07T05:20:33;0.00;;;0.00;;
44893;SDS011;30625;52.206;21.030;2023-05-07T05:22:58;0.10;;;0.10;;
44893;SDS011;30625;52.206;21.030;2023-05-07T05:25:24;0.63;;;0.47;;
44893;SDS011;30625;52.206;21.030;2023-05-07T05:27:50;0.00;;;0.00;;
44893;SDS011;30625;52.206;21.030;2023-05-07T05:30:15;0.00;;;0.00;;
44893;SDS011;30625;52.206;21.030;2023-05-07T05:32:41;0.45;;;0.38;;
44893;SDS011;30625;52.206;21.030;2023-05-07T05:35:07;0.00;;;0.00;;
44893;SDS011;30625;52.206;21.030;2023-05-07T05:37:33;0.00;;;0.00;;
44893;SDS011;30625;52.206;21.030;2023-05-07T05:39:59;0.00;;;0.00;;
44893;SDS011;30625;52.206;21.030;2023-05-07T05:42:24;0.00;;;0.00;;
44893;SDS011;30625;52.206;21.030;2023-05-07T05:44:50;0.10;;;0.10;;
44893;SDS011;30625;52.206;21.030;2023-05-07T05:47:16;0.20;;;0.15;;
44893;SDS011;30625;52.206;21.030;2023-05-07T05:49:45;0.00;;;0.00;;
44893;SDS011;30625;52.206;21.030;2023-05-07T05:52:11;0.10;;;0.10;;
44893;SDS011;30625;52.206;21.030;2023-05-07T05:54:38;0.00;;;0.00;;
44893;SDS011;30625;52.206;21.030;2023-05-07T05:57:04;0.00;;;0.00;;
44893;SDS011;30625;52.206;21.030;2023-05-07T05:59:30;0.52;;;0.47;;
44893;SDS011;30625;52.206;21.030;2023-05-07T06:01:56;0.00;;;0.00;;
44893;SDS011;30625;52.206;21.030;2023-05-07T06:04:22;0.00;;;0.00;;
44893;SDS011;30625;52.206;21.030;2023-05-07T06:06:48;0.22;;;0.22;;
44893;SDS011;30625;52.206;21.030;2023-05-07T06:09:13;0.00;;;0.00;;
44893;SDS011;30625;52.206;21.030;2023-05-07T06:11:39;0.00;;;0.00;;
44893;SDS011;30625;52.206;21.030;2023-05-07T06:14:06;0.20;;;0.20;;
44893;SDS011;30625;52.206;21.030;2023-05-07T06:16:31;0.00;;;0.00;;
44893;SDS011;30625;52.206;21.030;2023-05-07T06:18:57;0.00;;;0.00;;
44893;SDS011;30625;52.206;21.030;2023-05-07T06:21:23;0.00;;;0.00;;
44893;SDS011;30625;52.206;21.030;2023-05-07T06:23:49;0.45;;;0.45;;
44893;SDS011;30625;52.206;21.030;2023-05-07T06:26:16;0.00;;;0.00;;
44893;SDS011;30625;52.206;21.030;2023-05-07T06:28:41;0.00;;;0.00;;
44893;SDS011;30625;52.206;21.030;2023-05-07T06:31:17;0.00;;;0.00;;
44893;SDS011;30625;52.206;21.030;2023-05-07T06:33:47;0.00;;;0.00;;
44893;SDS011;30625;52.206;21.030;2023-05-07T06:36:14;0.00;;;0.00;;
44893;SDS011;30625;52.206;21.030;2023-05-07T06:38:40;0.47;;;0.40;;
44893;SDS011;30625;52.206;21.030;2023-05-07T06:41:06;0.00;;;0.00;;
44893;SDS011;30625;52.206;21.030;2023-05-07T06:45:58;0.13;;;0.10;;
44893;SDS011;30625;52.206;21.030;2023-05-07T06:48:23;0.00;;;0.00;;
44893;SDS011;30625;52.206;21.030;2023-05-07T06:50:49;0.00;;;0.00;;
44893;SDS011;30625;52.206;21.030;2023-05-07T06:53:15;0.00;;;0.00;;
44893;SDS011;30625;52.206;21.030;2023-05-07T06:55:41;0.03;;;0.03;;
44893;SDS011;30625;52.206;21.030;2023-05-07T06:58:07;0.00;;;0.00;;
44893;SDS011;30625;52.206;21.030;2023-05-07T07:00:32;0.00;;;0.00;;
44893;SDS011;30625;52.206;21.030;2023-05-07T07:02:58;0.00;;;0.00;;
44893;SDS011;30625;52.206;21.030;2023-05-07T07:05:25;0.30;;;0.17;;
44893;SDS011;30625;52.206;21.030;2023-05-07T07:07:51;0.45;;;0.45;;
44893;SDS011;30625;52.206;21.030;2023-05-07T07:10:19;0.00;;;0.00;;
44893;SDS011;30625;52.206;21.030;2023-05-07T07:12:45;0.00;;;0.00;;
44893;SDS011;30625;52.206;21.030;2023-05-07T07:15:11;0.00;;;0.00;;
44893;SDS011;30625;52.206;21.030;2023-05-07T07:17:36;0.00;;;0.00;;
44893;SDS011;30625;52.206;21.030;2023-05-07T07:20:02;0.00;;;0.00;;
44893;SDS011;30625;52.206;21.030;2023-05-07T07:22:28;0.35;;;0.30;;
44893;SDS011;30625;52.206;21.030;2023-05-07T07:24:54;0.00;;;0.00;;
44893;SDS011;30625;52.206;21.030;2023-05-07T07:27:20;0.00;;;0.00;;
44893;SDS011;30625;52.206;21.030;2023-05-07T07:29:45;0.00;;;0.00;;
44893;SDS011;30625;52.206;21.030;2023-05-07T07:32:11;0.00;;;0.00;;
44893;SDS011;30625;52.206;21.030;2023-05-07T07:34:37;0.20;;;0.17;;
44893;SDS011;30625;52.206;21.030;2023-05-07T07:37:02;0.00;;;0.00;;
44893;SDS011;30625;52.206;21.030;2023-05-07T07:39:31;0.20;;;0.10;;
44893;SDS011;30625;52.206;21.030;2023-05-07T07:41:58;0.00;;;0.00;;
44893;SDS011;30625;52.206;21.030;2023-05-07T07:46:50;0.00;;;0.00;;
44893;SDS011;30625;52.206;21.030;2023-05-07T07:49:15;0.00;;;0.00;;
44893;SDS011;30625;52.206;21.030;2023-05-07T07:51:41;0.00;;;0.00;;
44893;SDS011;30625;52.206;21.030;2023-05-07T07:54:07;0.10;;;0.10;;
44893;SDS011;30625;52.206;21.030;2023-05-07T07:56:33;0.00;;;0.00;;
44893;SDS011;30625;52.206;21.030;2023-05-07T07:59:00;0.00;;;0.00;;
44893;SDS011;30625;52.206;21.030;2023-05-07T08:01:25;0.00;;;0.00;;
44893;SDS011;30625;52.206;21.030;2023-05-07T08:03:52;0.10;;;0.05;;
44893;SDS011;30625;52.206;21.030;2023-05-07T08:06:18;0.00;;;0.00;;
44893;SDS011;30625;52.206;21.030;2023-05-07T08:08:44;3.40;;;1.58;;
44893;SDS011;30625;52.206;21.030;2023-05-07T08:11:09;0.00;;;0.00;;
44893;SDS011;30625;52.206;21.030;2023-05-07T08:13:36;0.00;;;0.00;;
44893;SDS011;30625;52.206;21.030;2023-05-07T08:16:02;0.10;;;0.10;;
44893;SDS011;30625;52.206;21.030;2023-05-07T08:18:28;0.00;;;0.00;;
44893;SDS011;30625;52.206;21.030;2023-05-07T08:20:54;0.75;;;0.40;;
44893;SDS011;30625;52.206;21.030;2023-05-07T08:23:20;0.00;;;0.00;;
44893;SDS011;30625;52.206;21.030;2023-05-07T08:28:12;0.00;;;0.00;;
44893;SDS011;30625;52.206;21.030;2023-05-07T08:30:37;0.00;;;0.00;;
44893;SDS011;30625;52.206;21.030;2023-05-07T08:33:03;0.10;;;0.10;;
44893;SDS011;30625;52.206;21.030;2023-05-07T08:35:28;0.10;;;0.00;;
44893;SDS011;30625;52.206;21.030;2023-05-07T08:37:54;0.32;;;0.22;;
44893;SDS011;30625;52.206;21.030;2023-05-07T08:40:21;0.10;;;0.10;;
44893;SDS011;30625;52.206;21.030;2023-05-07T08:42:49;0.00;;;0.00;;
44893;SDS011;30625;52.206;21.030;2023-05-07T08:45:21;0.00;;;0.00;;
44893;SDS011;30625;52.206;21.030;2023-05-07T08:47:49;0.13;;;0.10;;
44893;SDS011;30625;52.206;21.030;2023-05-07T08:50:17;0.13;;;0.08;;
44893;SDS011;30625;52.206;21.030;2023-05-07T08:52:43;0.52;;;0.32;;
44893;SDS011;30625;52.206;21.030;2023-05-07T08:57:36;0.00;;;0.00;;
44893;SDS011;30625;52.206;21.030;2023-05-07T09:00:02;0.10;;;0.10;;
44893;SDS011;30625;52.206;21.030;2023-05-07T09:02:29;1.52;;;0.68;;
44893;SDS011;30625;52.206;21.030;2023-05-07T09:04:55;0.00;;;0.00;;
44893;SDS011;30625;52.206;21.030;2023-05-07T09:07:20;0.13;;;0.10;;
44893;SDS011;30625;52.206;21.030;2023-05-07T09:09:47;0.00;;;0.00;;
44893;SDS011;30625;52.206;21.030;2023-05-07T09:12:13;0.00;;;0.00;;
44893;SDS011;30625;52.206;21.030;2023-05-07T09:14:39;0.00;;;0.00;;
44893;SDS011;30625;52.206;21.030;2023-05-07T09:17:04;0.00;;;0.00;;
44893;SDS011;30625;52.206;21.030;2023-05-07T09:19:30;6.05;;;1.33;;
44893;SDS011;30625;52.206;21.030;2023-05-07T09:22:00;0.15;;;0.08;;
44893;SDS011;30625;52.206;21.030;2023-05-07T09:24:27;0.00;;;0.00;;
44893;SDS011;30625;52.206;21.030;2023-05-07T09:26:57;0.22;;;0.17;;
44893;SDS011;30625;52.206;21.030;2023-05-07T09:29:23;0.00;;;0.00;;
44893;SDS011;30625;52.206;21.030;2023-05-07T09:31:48;0.00;;;0.00;;
44893;SDS011;30625;52.206;21.030;2023-05-07T09:34:14;0.00;;;0.00;;
44893;SDS011;30625;52.206;21.030;2023-05-07T09:36:40;0.00;;;0.00;;
44893;SDS011;30625;52.206;21.030;2023-05-07T09:39:07;0.00;;;0.00;;
44893;SDS011;30625;52.206;21.030;2023-05-07T09:41:32;0.52;;;0.43;;
44893;SDS011;30625;52.206;21.030;2023-05-07T09:44:07;0.00;;;0.00;;
44893;SDS011;30625;52.206;21.030;2023-05-07T09:46:34;3.42;;;0.75;;
44893;SDS011;30625;52.206;21.030;2023-05-07T09:49:03;0.00;;;0.00;;
44893;SDS011;30625;52.206;21.030;2023-05-07T09:51:39;0.00;;;0.00;;
44893;SDS011;30625;52.206;21.030;2023-05-07T09:54:08;0.00;;;0.00;;
44893;SDS011;30625;52.206;21.030;2023-05-07T09:56:35;0.00;;;0.00;;
44893;SDS011;30625;52.206;21.030;2023-05-07T09:59:02;0.00;;;0.00;;
44893;SDS011;30625;52.206;21.030;2023-05-07T10:01:31;0.00;;;0.00;;
44893;SDS011;30625;52.206;21.030;2023-05-07T10:03:57;0.75;;;0.40;;
44893;SDS011;30625;52.206;21.030;2023-05-07T10:06:24;0.55;;;0.20;;
44893;SDS011;30625;52.206;21.030;2023-05-07T10:08:51;0.17;;;0.15;;
44893;SDS011;30625;52.206;21.030;2023-05-07T10:11:18;0.00;;;0.00;;
44893;SDS011;30625;52.206;21.030;2023-05-07T10:13:44;0.13;;;0.10;;
44893;SDS011;30625;52.206;21.030;2023-05-07T10:16:12;0.82;;;0.80;;
44893;SDS011;30625;52.206;21.030;2023-05-07T10:18:40;0.08;;;0.08;;
44893;SDS011;30625;52.206;21.030;2023-05-07T10:23:33;0.00;;;0.00;;
44893;SDS011;30625;52.206;21.030;2023-05-07T10:25:59;0.00;;;0.00;;
44893;SDS011;30625;52.206;21.030;2023-05-07T10:28:29;0.00;;;0.00;;
44893;SDS011;30625;52.206;21.030;2023-05-07T10:31:10;4.32;;;1.52;;
44893;SDS011;30625;52.206;21.030;2023-05-07T10:34:08;5.28;;;1.90;;
44893;SDS011;30625;52.206;21.030;2023-05-07T10:36:37;3.35;;;1.27;;
44893;SDS011;30625;52.206;21.030;2023-05-07T10:41:32;3.20;;;1.20;;
44893;SDS011;30625;52.206;21.030;2023-05-07T10:43:58;3.22;;;1.35;;
44893;SDS011;30625;52.206;21.030;2023-05-07T10:46:31;4.35;;;1.48;;
44893;SDS011;30625;52.206;21.030;2023-05-07T10:51:26;4.97;;;1.20;;
44893;SDS011;30625;52.206;21.030;2023-05-07T10:56:39;5.53;;;1.40;;
44893;SDS011;30625;52.206;21.030;2023-05-07T11:01:49;3.35;;;1.42;;
44893;SDS011;30625;52.206;21.030;2023-05-07T11:04:16;5.38;;;1.27;;
44893;SDS011;30625;52.206;21.030;2023-05-07T11:07:16;8.05;;;2.10;;
44893;SDS011;30625;52.206;21.030;2023-05-07T11:09:56;3.40;;;1.45;;
44893;SDS011;30625;52.206;21.030;2023-05-07T11:15:07;3.00;;;1.33;;
44893;SDS011;30625;52.206;21.030;2023-05-07T11:20:20;4.68;;;1.65;;
44893;SDS011;30625;52.206;21.030;2023-05-07T11:22:46;3.92;;;1.35;;
44893;SDS011;30625;52.206;21.030;2023-05-07T11:25:19;5.25;;;1.38;;
44893;SDS011;30625;52.206;21.030;2023-05-07T11:27:45;3.28;;;1.10;;
44893;SDS011;30625;52.206;21.030;2023-05-07T11:32:47;3.20;;;1.33;;
44893;SDS011;30625;52.206;21.030;2023-05-07T11:35:13;4.88;;;1.50;;
44893;SDS011;30625;52.206;21.030;2023-05-07T11:37:40;3.63;;;1.40;;
44893;SDS011;30625;52.206;21.030;2023-05-07T11:40:07;4.20;;;1.42;;
44893;SDS011;30625;52.206;21.030;2023-05-07T11:42:36;3.13;;;1.35;;
44893;SDS011;30625;52.206;21.030;2023-05-07T11:45:03;4.68;;;1.35;;
44893;SDS011;30625;52.206;21.030;2023-05-07T11:47:31;4.22;;;1.65;;
44893;SDS011;30625;52.206;21.030;2023-05-07T11:49:57;4.03;;;1.35;;
44893;SDS011;30625;52.206;21.030;2023-05-07T11:52:29;4.70;;;1.45;;
44893;SDS011;30625;52.206;21.030;2023-05-07T11:54:56;3.90;;;1.33;;
44893;SDS011;30625;52.206;21.030;2023-05-07T11:57:23;3.67;;;1.30;;
44893;SDS011;30625;52.206;21.030;2023-05-07T11:59:58;4.38;;;1.30;;
44893;SDS011;30625;52.206;21.030;2023-05-07T12:02:27;5.28;;;1.52;;
44893;SDS011;30625;52.206;21.030;2023-05-07T12:04:56;3.70;;;1.30;;
44893;SDS011;30625;52.206;21.030;2023-05-07T12:07:23;3.72;;;1.40;;
44893;SDS011;30625;52.206;21.030;2023-05-07T12:09:49;3.63;;;1.30;;
44893;SDS011;30625;52.206;21.030;2023-05-07T12:12:15;3.70;;;1.50;;
44893;SDS011;30625;52.206;21.030;2023-05-07T12:14:42;4.53;;;1.50;;
44893;SDS011;30625;52.206;21.030;2023-05-07T12:17:13;3.97;;;1.38;;
44893;SDS011;30625;52.206;21.030;2023-05-07T12:19:39;5.85;;;1.70;;
44893;SDS011;30625;52.206;21.030;2023-05-07T12:22:07;5.28;;;1.30;;
44893;SDS011;30625;52.206;21.030;2023-05-07T12:24:49;2.72;;;1.17;;
44893;SDS011;30625;52.206;21.030;2023-05-07T12:27:21;3.28;;;1.20;;
44893;SDS011;30625;52.206;21.030;2023-05-07T12:29:48;3.17;;;1.00;;
44893;SDS011;30625;52.206;21.030;2023-05-07T12:32:15;4.75;;;1.50;;
44893;SDS011;30625;52.206;21.030;2023-05-07T12:34:43;2.85;;;1.00;;
44893;SDS011;30625;52.206;21.030;2023-05-07T12:37:09;3.65;;;1.40;;
44893;SDS011;30625;52.206;21.030;2023-05-07T12:39:35;3.88;;;1.15;;
44893;SDS011;30625;52.206;21.030;2023-05-07T12:42:01;2.83;;;1.20;;
44893;SDS011;30625;52.206;21.030;2023-05-07T12:44:31;2.65;;;1.05;;
44893;SDS011;30625;52.206;21.030;2023-05-07T12:46:57;5.22;;;1.30;;
44893;SDS011;30625;52.206;21.030;2023-05-07T12:49:26;4.63;;;1.15;;
44893;SDS011;30625;52.206;21.030;2023-05-07T12:51:51;3.03;;;1.27;;
44893;SDS011;30625;52.206;21.030;2023-05-07T12:54:32;7.15;;;1.10;;
44893;SDS011;30625;52.206;21.030;2023-05-07T12:57:05;3.22;;;1.00;;
44893;SDS011;30625;52.206;21.030;2023-05-07T12:59:39;2.42;;;0.70;;
44893;SDS011;30625;52.206;21.030;2023-05-07T13:02:06;2.55;;;0.80;;
44893;SDS011;30625;52.206;21.030;2023-05-07T13:04:32;2.90;;;0.90;;
44893;SDS011;30625;52.206;21.030;2023-05-07T13:06:59;5.28;;;1.95;;
44893;SDS011;30625;52.206;21.030;2023-05-07T13:09:25;2.75;;;1.30;;
44893;SDS011;30625;52.206;21.030;2023-05-07T13:11:50;4.05;;;1.20;;
44893;SDS011;30625;52.206;21.030;2023-05-07T13:14:16;3.45;;;1.00;;
44893;SDS011;30625;52.206;21.030;2023-05-07T13:16:42;3.95;;;1.27;;
44893;SDS011;30625;52.206;21.030;2023-05-07T13:19:08;3.05;;;0.98;;
44893;SDS011;30625;52.206;21.030;2023-05-07T13:21:34;2.80;;;1.20;;
44893;SDS011;30625;52.206;21.030;2023-05-07T13:23:59;4.22;;;1.02;;
44893;SDS011;30625;52.206;21.030;2023-05-07T13:26:25;4.22;;;1.27;;
44893;SDS011;30625;52.206;21.030;2023-05-07T13:28:52;4.38;;;0.98;;
44893;SDS011;30625;52.206;21.030;2023-05-07T13:31:20;5.07;;;1.38;;
44893;SDS011;30625;52.206;21.030;2023-05-07T13:33:46;3.55;;;0.98;;
44893;SDS011;30625;52.206;21.030;2023-05-07T13:36:12;3.13;;;1.00;;
44893;SDS011;30625;52.206;21.030;2023-05-07T13:38:38;2.80;;;0.98;;
44893;SDS011;30625;52.206;21.030;2023-05-07T13:41:05;3.70;;;1.00;;
44893;SDS011;30625;52.206;21.030;2023-05-07T13:43:30;3.97;;;0.95;;
44893;SDS011;30625;52.206;21.030;2023-05-07T13:45:58;3.95;;;1.23;;
44893;SDS011;30625;52.206;21.030;2023-05-07T13:48:24;3.05;;;0.85;;
44893;SDS011;30625;52.206;21.030;2023-05-07T13:50:50;3.63;;;1.13;;
44893;SDS011;30625;52.206;21.030;2023-05-07T13:53:16;7.57;;;1.20;;
44893;SDS011;30625;52.206;21.030;2023-05-07T13:55:43;2.72;;;0.85;;
44893;SDS011;30625;52.206;21.030;2023-05-07T13:58:09;3.92;;;0.95;;
44893;SDS011;30625;52.206;21.030;2023-05-07T14:00:35;2.53;;;0.90;;
44893;SDS011;30625;52.206;21.030;2023-05-07T14:03:01;4.03;;;1.50;;
44893;SDS011;30625;52.206;21.030;2023-05-07T14:05:26;3.08;;;1.15;;
44893;SDS011;30625;52.206;21.030;2023-05-07T14:07:56;3.00;;;1.00;;
44893;SDS011;30625;52.206;21.030;2023-05-07T14:10:22;4.13;;;1.10;;
44893;SDS011;30625;52.206;21.030;2023-05-07T14:12:49;4.65;;;1.00;;
44893;SDS011;30625;52.206;21.030;2023-05-07T14:15:14;2.97;;;0.85;;
44893;SDS011;30625;52.206;21.030;2023-05-07T14:17:41;4.60;;;1.08;;
44893;SDS011;30625;52.206;21.030;2023-05-07T14:20:07;3.33;;;1.20;;
44893;SDS011;30625;52.206;21.030;2023-05-07T14:24:59;5.32;;;1.10;;
44893;SDS011;30625;52.206;21.030;2023-05-07T14:27:25;5.80;;;1.48;;
44893;SDS011;30625;52.206;21.030;2023-05-07T14:29:50;3.00;;;0.95;;
44893;SDS011;30625;52.206;21.030;2023-05-07T14:32:20;4.72;;;1.00;;
44893;SDS011;30625;52.206;21.030;2023-05-07T14:34:46;2.47;;;0.98;;
44893;SDS011;30625;52.206;21.030;2023-05-07T14:37:11;5.70;;;1.20;;
44893;SDS011;30625;52.206;21.030;2023-05-07T14:39:37;3.92;;;1.20;;
44893;SDS011;30625;52.206;21.030;2023-05-07T14:42:03;5.53;;;1.00;;
44893;SDS011;30625;52.206;21.030;2023-05-07T14:44:29;13.15;;;2.70;;
44893;SDS011;30625;52.206;21.030;2023-05-07T14:46:56;3.22;;;1.15;;
44893;SDS011;30625;52.206;21.030;2023-05-07T14:49:22;3.30;;;1.00;;
44893;SDS011;30625;52.206;21.030;2023-05-07T14:51:48;3.63;;;1.20;;
44893;SDS011;30625;52.206;21.030;2023-05-07T14:54:14;4.03;;;1.38;;
44893;SDS011;30625;52.206;21.030;2023-05-07T14:56:40;4.50;;;1.63;;
44893;SDS011;30625;52.206;21.030;2023-05-07T14:59:06;3.53;;;1.30;;
44893;SDS011;30625;52.206;21.030;2023-05-07T15:01:36;2.40;;;1.00;;
44893;SDS011;30625;52.206;21.030;2023-05-07T15:04:05;3.13;;;1.20;;
44893;SDS011;30625;52.206;21.030;2023-05-07T15:06:31;3.75;;;1.17;;
44893;SDS011;30625;52.206;21.030;2023-05-07T15:08:58;4.68;;;1.20;;
44893;SDS011;30625;52.206;21.030;2023-05-07T15:11:24;3.65;;;0.90;;
44893;SDS011;30625;52.206;21.030;2023-05-07T15:13:49;3.45;;;1.20;;
44893;SDS011;30625;52.206;21.030;2023-05-07T15:16:15;2.50;;;0.75;;